createdAt,value
2023-02-18T00:01:39.183Z,12.80
2023-02-18T00:04:07.352Z,12.90
2023-02-18T00:06:39.611Z,12.70
2023-02-18T00:09:10.971Z,13.00
2023-02-18T00:11:39.879Z,13.00
2023-02-18T00:14:13.417Z,12.80
2023-02-18T00:16:42.395Z,12.90
2023-02-18T00:19:16.341Z,12.80
2023-02-18T00:21:45.164Z,12.90
2023-02-18T00:24:16.475Z,12.90
2023-02-18T00:26:44.827Z,12.90
2023-02-18T00:29:14.399Z,13.00
2023-02-18T00:31:44.686Z,12.80
2023-02-18T00:34:17.063Z,12.90
2023-02-18T00:36:47.165Z,12.90
2023-02-18T00:39:15.401Z,12.90
2023-02-18T00:41:44.118Z,12.80
2023-02-18T00:44:13.812Z,13.00
2023-02-18T00:46:42.135Z,12.90
2023-02-18T00:49:11.141Z,12.90
2023-02-18T00:51:39.340Z,12.90
2023-02-18T00:54:07.415Z,12.90
2023-02-18T00:56:35.837Z,12.90
2023-02-18T00:59:04.416Z,12.90
2023-02-18T01:01:36.722Z,12.80
2023-02-18T01:04:05.102Z,12.90
2023-02-18T01:06:33.280Z,12.80
2023-02-18T01:09:01.288Z,12.70
2023-02-18T01:11:29.317Z,12.50
2023-02-18T01:13:57.302Z,12.40
2023-02-18T01:16:25.686Z,12.50
2023-02-18T01:18:55.099Z,12.60
2023-02-18T01:21:23.139Z,12.40
2023-02-18T01:23:51.158Z,12.50
2023-02-18T01:26:19.309Z,12.60
2023-02-18T01:28:47.325Z,12.50
2023-02-18T01:31:18.045Z,12.50
2023-02-18T01:33:46.118Z,12.70
2023-02-18T01:36:15.534Z,12.50
2023-02-18T01:38:43.583Z,12.40
2023-02-18T01:41:12.206Z,12.30
2023-02-18T01:43:40.828Z,12.20
2023-02-18T01:46:16.623Z,12.40
2023-02-18T01:48:49.448Z,12.40
2023-02-18T01:51:23.666Z,12.40
2023-02-18T01:53:58.409Z,12.50
2023-02-18T01:56:30.999Z,12.70
2023-02-18T01:59:03.355Z,12.50
2023-02-18T02:01:33.586Z,12.70
2023-02-18T02:04:01.901Z,12.60
2023-02-18T02:06:33.050Z,12.60
2023-02-18T02:09:05.610Z,12.50
2023-02-18T02:12:10.381Z,12.40
2023-02-18T02:14:58.590Z,12.40
2023-02-18T02:17:39.532Z,12.40
2023-02-18T02:20:59.200Z,12.50
2023-02-18T02:24:21.932Z,12.30
2023-02-18T02:27:12.121Z,12.30
2023-02-18T02:30:52.799Z,12.20
2023-02-18T02:33:50.079Z,12.20
2023-02-18T02:36:24.636Z,12.30
2023-02-18T02:39:02.345Z,12.20
2023-02-18T02:41:45.353Z,12.40
2023-02-18T02:44:22.116Z,12.50
2023-02-18T02:46:54.835Z,12.50
2023-02-18T02:49:45.053Z,12.30
2023-02-18T02:52:20.181Z,12.20
2023-02-18T02:54:48.258Z,12.20
2023-02-18T02:57:47.157Z,12.30
2023-02-18T03:00:18.369Z,12.30
2023-02-18T03:03:25.556Z,12.30
2023-02-18T03:06:18.203Z,12.50
2023-02-18T03:09:02.183Z,12.50
2023-02-18T03:11:36.682Z,12.40
2023-02-18T03:14:12.724Z,12.40
2023-02-18T03:16:48.298Z,12.20
2023-02-18T03:19:25.315Z,12.20
2023-02-18T03:21:59.254Z,12.10
2023-02-18T03:24:32.033Z,12.10
2023-02-18T03:27:07.360Z,12.00
2023-02-18T03:29:36.326Z,12.10
2023-02-18T03:32:09.333Z,12.10
2023-02-18T03:34:42.841Z,12.10
2023-02-18T03:37:12.187Z,12.20
2023-02-18T03:39:46.886Z,12.10
2023-02-18T03:42:14.895Z,11.70
2023-02-18T03:44:43.151Z,11.60
2023-02-18T03:47:13.945Z,11.50
2023-02-18T03:49:42.178Z,11.60
2023-02-18T03:52:11.328Z,11.60
2023-02-18T03:54:40.719Z,11.70
2023-02-18T03:57:08.935Z,11.50
2023-02-18T03:59:37.035Z,11.60
2023-02-18T04:02:05.034Z,11.50
2023-02-18T04:04:33.775Z,11.60
2023-02-18T04:07:01.806Z,11.60
2023-02-18T04:09:29.816Z,11.50
2023-02-18T04:11:59.168Z,11.50
2023-02-18T04:14:27.162Z,11.70
2023-02-18T04:16:55.241Z,11.90
2023-02-18T04:19:26.297Z,11.80
2023-02-18T04:21:54.449Z,11.90
2023-02-18T04:24:22.458Z,12.00
2023-02-18T04:26:50.826Z,12.10
2023-02-18T04:29:20.121Z,12.10
2023-02-18T04:31:48.207Z,12.10
2023-02-18T04:34:16.285Z,12.10
2023-02-18T04:36:44.254Z,12.10
2023-02-18T04:39:12.269Z,12.00
2023-02-18T04:41:40.255Z,12.00
2023-02-18T04:44:08.254Z,12.10
2023-02-18T04:46:40.313Z,11.90
2023-02-18T04:49:08.343Z,12.00
2023-02-18T04:51:37.607Z,11.90
2023-02-18T04:54:05.997Z,12.00
2023-02-18T04:56:34.020Z,12.10
2023-02-18T04:59:02.037Z,12.00
2023-02-18T05:01:30.093Z,11.80
2023-02-18T05:03:59.483Z,11.90
2023-02-18T05:06:27.686Z,11.90
2023-02-18T05:08:55.716Z,11.90
2023-02-18T05:11:23.714Z,11.80
2023-02-18T05:13:52.159Z,11.80
2023-02-18T05:16:20.158Z,11.80
2023-02-18T05:18:48.155Z,11.90
2023-02-18T05:21:17.670Z,12.00
2023-02-18T05:23:45.736Z,11.80
2023-02-18T05:26:13.748Z,11.70
2023-02-18T05:28:41.732Z,11.80
2023-02-18T05:31:09.902Z,11.80
2023-02-18T05:33:37.992Z,11.60
2023-02-18T05:36:12.125Z,11.40
2023-02-18T05:38:41.511Z,11.50
2023-02-18T05:41:09.453Z,11.50
2023-02-18T05:43:57.493Z,11.50
2023-02-18T05:46:25.817Z,11.60
2023-02-18T05:48:53.834Z,11.50
2023-02-18T05:51:21.824Z,11.50
2023-02-18T05:53:51.147Z,11.40
2023-02-18T05:56:19.152Z,11.30
2023-02-18T05:58:47.395Z,11.30
2023-02-18T06:01:15.498Z,11.20
2023-02-18T06:03:43.498Z,11.40
2023-02-18T06:06:12.028Z,11.20
2023-02-18T06:08:40.646Z,11.30
2023-02-18T06:11:10.143Z,11.30
2023-02-18T06:13:38.236Z,11.30
2023-02-18T06:16:07.448Z,11.20
2023-02-18T06:18:35.745Z,11.10
2023-02-18T06:21:03.766Z,11.30
2023-02-18T06:23:31.856Z,11.10
2023-02-18T06:25:59.847Z,11.10
2023-02-18T06:28:29.474Z,11.20
2023-02-18T06:30:57.614Z,11.20
2023-02-18T06:33:25.750Z,11.30
2023-02-18T06:35:58.873Z,11.30
2023-02-18T06:38:27.054Z,11.20
2023-02-18T06:40:55.573Z,11.10
2023-02-18T06:43:23.742Z,11.20
2023-02-18T06:45:53.243Z,11.40
2023-02-18T06:48:22.088Z,11.20
2023-02-18T06:50:52.601Z,11.30
2023-02-18T06:53:20.711Z,11.30
2023-02-18T06:55:49.575Z,11.40
2023-02-18T06:58:17.751Z,11.40
2023-02-18T07:00:46.041Z,11.50
2023-02-18T07:03:16.125Z,11.50
2023-02-18T07:05:44.307Z,11.40
2023-02-18T07:08:12.906Z,11.50
2023-02-18T07:10:40.860Z,11.50
2023-02-18T07:13:08.988Z,11.40
2023-02-18T07:15:37.019Z,11.30
2023-02-18T07:18:05.666Z,11.10
2023-02-18T07:20:35.074Z,11.10
2023-02-18T07:23:03.169Z,11.30
2023-02-18T07:25:31.224Z,11.30
2023-02-18T07:27:59.194Z,11.30
2023-02-18T07:30:27.247Z,11.30
2023-02-18T07:32:55.366Z,11.40
2023-02-18T07:35:23.379Z,11.30
2023-02-18T07:37:52.684Z,11.20
2023-02-18T07:40:23.379Z,11.20
2023-02-18T07:42:51.396Z,11.30
2023-02-18T07:45:19.701Z,11.20
2023-02-18T07:47:47.743Z,11.00
2023-02-18T07:50:15.746Z,11.00
2023-02-18T07:52:43.759Z,11.10
2023-02-18T07:55:13.094Z,11.10
2023-02-18T07:57:55.007Z,11.20
2023-02-18T08:00:23.252Z,11.30
2023-02-18T08:02:51.328Z,11.10
2023-02-18T08:05:19.637Z,11.20
2023-02-18T08:07:47.737Z,10.70
2023-02-18T08:10:17.168Z,11.10
2023-02-18T08:12:45.435Z,11.20
2023-02-18T08:15:14.471Z,11.00
2023-02-18T08:17:42.656Z,11.10
2023-02-18T08:20:12.142Z,11.30
2023-02-18T08:22:40.170Z,11.30
2023-02-18T08:25:13.688Z,11.30
2023-02-18T08:27:47.533Z,11.20
2023-02-18T08:30:16.254Z,11.20
2023-02-18T08:32:44.780Z,11.30
2023-02-18T08:35:14.851Z,11.20
2023-02-18T08:37:52.227Z,11.30
2023-02-18T08:40:22.113Z,11.50
2023-02-18T08:42:51.498Z,11.50
2023-02-18T08:45:20.048Z,11.50
2023-02-18T08:48:17.943Z,11.70
2023-02-18T08:50:36.739Z,11.40
2023-02-18T08:53:06.025Z,11.30
2023-02-18T08:55:37.130Z,11.30
2023-02-18T08:58:07.624Z,10.70
2023-02-18T09:00:36.492Z,10.90
2023-02-18T09:03:04.734Z,11.00
2023-02-18T09:05:32.891Z,11.20
2023-02-18T09:08:00.846Z,11.40
2023-02-18T09:10:28.940Z,11.60
2023-02-18T09:12:56.989Z,11.60
2023-02-18T09:15:26.403Z,11.50
2023-02-18T09:17:54.378Z,11.60
2023-02-18T09:20:22.618Z,11.60
2023-02-18T09:22:50.580Z,11.70
2023-02-18T09:25:18.759Z,11.70
2023-02-18T09:27:46.757Z,11.60
2023-02-18T09:30:15.571Z,11.60
2023-02-18T09:32:45.177Z,11.50
2023-02-18T09:35:13.223Z,11.60
2023-02-18T09:37:41.815Z,11.60
2023-02-18T09:40:23.844Z,11.70
2023-02-18T09:42:51.895Z,11.50
2023-02-18T09:45:21.758Z,11.60
2023-02-18T09:47:53.152Z,11.70
2023-02-18T09:50:25.867Z,11.80
2023-02-18T09:52:57.302Z,11.80
2023-02-18T09:55:30.537Z,11.70
2023-02-18T09:58:03.621Z,11.70
2023-02-18T10:00:36.577Z,11.70
2023-02-18T10:03:11.766Z,11.40
2023-02-18T10:05:52.203Z,11.70
2023-02-18T10:08:26.208Z,11.50
2023-02-18T10:10:54.477Z,11.40
2023-02-18T10:13:25.220Z,11.60
2023-02-18T10:15:54.225Z,11.60
2023-02-18T10:21:08.490Z,11.80
2023-02-18T10:23:41.783Z,11.60
2023-02-18T10:26:16.549Z,11.60
2023-02-18T10:28:45.309Z,11.80
2023-02-18T10:31:21.201Z,11.80
2023-02-18T10:34:00.569Z,11.40
2023-02-18T10:36:37.042Z,11.50
2023-02-18T10:39:27.770Z,11.50
2023-02-18T10:42:07.010Z,11.50
2023-02-18T10:44:48.180Z,11.60
2023-02-18T10:47:28.492Z,11.60
2023-02-18T10:50:05.168Z,11.50
2023-02-18T10:52:40.119Z,11.60
2023-02-18T10:55:11.295Z,11.50
2023-02-18T10:57:49.870Z,11.40
2023-02-18T11:00:23.989Z,11.50
2023-02-18T11:03:19.171Z,11.60
2023-02-18T11:05:52.073Z,11.50
2023-02-18T11:08:24.007Z,11.50
2023-02-18T11:10:52.646Z,11.30
2023-02-18T11:13:28.778Z,11.20
2023-02-18T11:16:00.706Z,11.10
2023-02-18T11:18:37.645Z,11.30
2023-02-18T11:21:21.762Z,11.40
2023-02-18T11:23:53.149Z,11.20
2023-02-18T11:26:28.938Z,11.50
2023-02-18T11:29:03.945Z,11.60
2023-02-18T11:31:42.236Z,11.80
2023-02-18T11:34:18.465Z,11.80
2023-02-18T11:36:52.051Z,11.70
2023-02-18T11:39:27.059Z,11.70
2023-02-18T11:42:01.056Z,11.70
2023-02-18T11:44:32.455Z,11.90
2023-02-18T11:47:04.346Z,11.80
2023-02-18T11:49:35.029Z,11.70
2023-02-18T11:52:19.485Z,11.60
2023-02-18T11:55:03.031Z,11.60
2023-02-18T11:57:32.006Z,11.90
2023-02-18T12:00:01.365Z,11.80
2023-02-18T12:02:37.839Z,11.80
2023-02-18T12:05:17.697Z,11.90
2023-02-18T12:07:50.105Z,12.10
2023-02-18T12:10:27.234Z,12.20
2023-02-18T12:13:03.234Z,12.20
2023-02-18T12:15:47.610Z,12.20
2023-02-18T12:18:48.011Z,12.00
2023-02-18T12:21:31.568Z,12.20
2023-02-18T12:24:14.417Z,12.20
2023-02-18T12:26:54.806Z,12.00
2023-02-18T12:29:47.582Z,12.10
2023-02-18T12:32:37.578Z,12.20
2023-02-18T12:35:30.833Z,12.20
2023-02-18T12:38:28.880Z,11.90
2023-02-18T12:41:15.621Z,11.90
2023-02-18T12:43:56.253Z,12.00
2023-02-18T12:47:01.685Z,12.00
2023-02-18T12:50:14.197Z,12.10
2023-02-18T12:52:57.219Z,11.90
2023-02-18T12:55:40.053Z,12.00
2023-02-18T12:58:26.486Z,12.00
2023-02-18T13:01:24.778Z,12.10
2023-02-18T13:04:17.730Z,12.00
2023-02-18T13:07:02.537Z,12.00
2023-02-18T13:09:46.479Z,12.10
2023-02-18T13:12:23.690Z,12.00
2023-02-18T13:15:00.702Z,12.00
2023-02-18T13:17:36.985Z,12.10
2023-02-18T13:20:15.489Z,12.00
2023-02-18T13:22:43.742Z,12.10
2023-02-18T13:25:14.791Z,12.30
2023-02-18T13:27:50.942Z,12.20
2023-02-18T13:30:29.138Z,12.30
2023-02-18T13:33:11.395Z,12.10
2023-02-18T13:35:44.309Z,11.90
2023-02-18T13:38:52.950Z,12.10
2023-02-18T13:41:22.040Z,11.90
2023-02-18T13:43:50.237Z,11.90
2023-02-18T13:46:22.046Z,11.80
2023-02-18T13:48:53.069Z,11.90
2023-02-18T13:51:31.738Z,11.90
2023-02-18T13:54:06.227Z,11.70
2023-02-18T13:56:36.935Z,11.80
2023-02-18T13:59:16.450Z,12.00
2023-02-18T14:01:48.690Z,12.20
2023-02-18T14:04:52.437Z,12.10
2023-02-18T14:07:47.911Z,12.20
2023-02-18T14:10:34.886Z,12.10
2023-02-18T14:13:26.230Z,12.00
2023-02-18T14:16:00.080Z,12.00
2023-02-18T14:18:52.990Z,12.00
2023-02-18T14:21:37.243Z,11.70
2023-02-18T14:24:08.175Z,11.90
2023-02-18T14:26:41.807Z,11.90
2023-02-18T14:29:19.107Z,11.90
2023-02-18T14:31:54.426Z,11.80
2023-02-18T14:35:16.548Z,11.80
2023-02-18T14:38:34.746Z,11.80
2023-02-18T14:41:26.406Z,11.80
2023-02-18T14:44:31.441Z,11.90
2023-02-18T14:47:15.512Z,12.30
2023-02-18T14:49:46.068Z,12.20
2023-02-18T14:52:31.852Z,11.70
2023-02-18T14:55:05.038Z,11.80
2023-02-18T14:57:40.028Z,11.90
2023-02-18T15:00:16.410Z,11.60
2023-02-18T15:02:44.537Z,11.80
2023-02-18T15:05:18.989Z,11.80
2023-02-18T15:07:59.814Z,11.70
2023-02-18T15:10:38.178Z,11.90
2023-02-18T15:13:10.666Z,12.00
2023-02-18T15:15:38.760Z,12.00
2023-02-18T15:18:07.061Z,11.90
2023-02-18T15:20:36.301Z,12.00
2023-02-18T15:23:05.694Z,11.90
2023-02-18T15:25:33.693Z,11.70
2023-02-18T15:28:01.651Z,11.80
2023-02-18T15:30:32.022Z,11.90
2023-02-18T15:33:02.206Z,11.70
2023-02-18T15:35:33.610Z,11.70
2023-02-18T15:38:04.478Z,11.60
2023-02-18T15:40:40.390Z,11.50
2023-02-18T15:43:08.984Z,11.50
2023-02-18T15:45:41.441Z,11.50
2023-02-18T15:48:24.377Z,11.60
2023-02-18T15:50:58.526Z,11.70
2023-02-18T15:53:37.020Z,11.70
2023-02-18T15:56:11.887Z,11.70
2023-02-18T15:58:39.951Z,11.90
2023-02-18T16:01:24.295Z,12.10
2023-02-18T16:03:52.402Z,12.00
2023-02-18T16:06:25.593Z,11.80
2023-02-18T16:09:03.135Z,11.90
2023-02-18T16:11:36.860Z,12.00
2023-02-18T16:14:06.065Z,12.00
2023-02-18T16:16:39.539Z,11.90
2023-02-18T16:19:22.982Z,11.90
2023-02-18T16:21:50.972Z,11.90
2023-02-18T16:24:27.943Z,11.90
2023-02-18T16:26:59.153Z,12.00
2023-02-18T16:29:35.625Z,11.90
2023-02-18T16:32:03.960Z,11.90
2023-02-18T16:34:32.069Z,12.00
2023-02-18T16:37:17.625Z,12.00
2023-02-18T16:39:45.679Z,11.80
2023-02-18T16:42:15.243Z,11.90
2023-02-18T16:44:43.321Z,11.90
2023-02-18T16:47:16.767Z,11.90
2023-02-18T16:49:47.443Z,11.70
2023-02-18T16:52:18.495Z,11.70
2023-02-18T16:54:47.780Z,11.60
2023-02-18T16:57:17.131Z,11.60
2023-02-18T16:59:45.122Z,11.70
2023-02-18T17:02:19.437Z,11.70
2023-02-18T17:04:47.608Z,11.60
2023-02-18T17:07:15.616Z,11.50
2023-02-18T17:09:43.573Z,11.60
2023-02-18T17:12:12.905Z,11.60
2023-02-18T17:14:43.622Z,11.40
2023-02-18T17:17:13.900Z,11.40
2023-02-18T17:19:42.162Z,11.50
2023-02-18T17:22:13.172Z,11.40
2023-02-18T17:24:41.177Z,11.30
2023-02-18T17:27:12.272Z,11.20
2023-02-18T17:29:40.270Z,11.10
2023-02-18T17:32:10.212Z,11.10
2023-02-18T17:34:40.931Z,11.40
2023-02-18T17:37:13.514Z,11.40
2023-02-18T17:39:41.613Z,11.20
2023-02-18T17:42:12.675Z,11.20
2023-02-18T17:44:42.307Z,11.30
2023-02-18T17:47:11.658Z,11.30
2023-02-18T17:49:39.669Z,11.50
2023-02-18T17:52:07.766Z,11.50
2023-02-18T17:54:35.756Z,11.50
2023-02-18T17:57:03.792Z,11.50
2023-02-18T17:59:31.856Z,11.60
2023-02-18T18:01:59.869Z,11.60
2023-02-18T18:04:29.383Z,11.50
2023-02-18T18:06:57.463Z,11.30
2023-02-18T18:09:25.590Z,11.40
2023-02-18T18:11:53.665Z,11.30
2023-02-18T18:14:21.687Z,11.20
2023-02-18T18:16:49.702Z,11.30
2023-02-18T18:19:17.752Z,11.40
2023-02-18T18:21:48.802Z,11.20
2023-02-18T18:24:18.120Z,11.20
2023-02-18T18:26:46.407Z,11.10
2023-02-18T18:29:14.940Z,11.10
2023-02-18T18:31:43.906Z,11.10
2023-02-18T18:34:13.047Z,11.20
2023-02-18T18:36:42.258Z,11.20
2023-02-18T18:39:11.827Z,11.10
2023-02-18T18:41:40.242Z,11.00
2023-02-18T18:44:08.405Z,10.90
2023-02-18T18:46:36.457Z,11.00
2023-02-18T18:49:04.796Z,11.20
2023-02-18T18:51:36.381Z,11.30
2023-02-18T18:54:04.540Z,11.30
2023-02-18T18:56:34.626Z,11.10
2023-02-18T18:59:04.030Z,11.10
2023-02-18T19:01:33.103Z,11.20
2023-02-18T19:04:01.356Z,11.20
2023-02-18T19:06:29.392Z,11.20
2023-02-18T19:08:57.450Z,11.00
2023-02-18T19:11:25.566Z,11.00
2023-02-18T19:13:59.271Z,11.00
2023-02-18T19:16:35.514Z,11.00
2023-02-18T19:19:03.499Z,11.10
2023-02-18T19:21:33.358Z,11.10
2023-02-18T19:24:01.382Z,11.30
2023-02-18T19:26:29.373Z,11.40
2023-02-18T19:28:58.801Z,11.40
2023-02-18T19:31:26.957Z,11.30
2023-02-18T19:33:55.558Z,11.20
2023-02-18T19:36:23.621Z,11.00
2023-02-18T19:38:52.407Z,11.10
2023-02-18T19:41:21.621Z,11.10
2023-02-18T19:43:49.684Z,11.00
2023-02-18T19:46:20.036Z,11.10
2023-02-18T19:48:50.618Z,11.10
2023-02-18T19:51:19.142Z,11.20
2023-02-18T19:53:47.287Z,11.20
2023-02-18T19:56:15.349Z,11.20
2023-02-18T19:58:43.633Z,11.10
2023-02-18T20:01:14.022Z,11.10
2023-02-18T20:03:43.802Z,11.00
2023-02-18T20:06:16.858Z,10.90
2023-02-18T20:08:45.104Z,10.90
2023-02-18T20:11:13.217Z,10.70
2023-02-18T20:13:41.586Z,10.80
2023-02-18T20:16:11.560Z,10.90
2023-02-18T20:18:39.596Z,10.90
2023-02-18T20:21:11.806Z,11.00
2023-02-18T20:23:40.157Z,11.10
2023-02-18T20:26:09.191Z,11.10
2023-02-18T20:28:37.271Z,11.20
2023-02-18T20:31:06.769Z,11.20
2023-02-18T20:33:34.896Z,11.20
2023-02-18T20:36:12.007Z,11.30
2023-02-18T20:38:41.665Z,11.10
2023-02-18T20:41:14.314Z,11.20
2023-02-18T20:43:42.788Z,11.10
2023-02-18T20:46:14.686Z,11.00
2023-02-18T20:48:43.060Z,11.00
2023-02-18T20:51:13.560Z,11.20
2023-02-18T20:53:44.097Z,11.20
2023-02-18T20:56:12.776Z,10.90
2023-02-18T20:58:41.156Z,11.10
2023-02-18T21:01:12.115Z,11.00
2023-02-18T21:03:41.380Z,11.10
2023-02-18T21:06:13.827Z,11.20
2023-02-18T21:08:45.087Z,11.00
2023-02-18T21:11:16.260Z,11.10
2023-02-18T21:13:46.337Z,11.20
2023-02-18T21:16:15.268Z,11.20
2023-02-18T21:18:43.414Z,11.30
2023-02-18T21:21:13.078Z,11.00
2023-02-18T21:23:43.085Z,11.00
2023-02-18T21:26:14.195Z,11.20
2023-02-18T21:28:42.519Z,11.20
2023-02-18T21:31:18.090Z,11.10
2023-02-18T21:33:46.419Z,11.10
2023-02-18T21:36:15.600Z,11.20
2023-02-18T21:38:45.413Z,11.20
2023-02-18T21:41:14.153Z,11.30
2023-02-18T21:43:46.039Z,11.30
2023-02-18T21:46:17.721Z,11.30
2023-02-18T21:49:06.479Z,11.20
2023-02-18T21:51:56.054Z,11.10
2023-02-18T21:54:28.108Z,11.10
2023-02-18T21:56:58.334Z,10.90
2023-02-18T21:59:29.298Z,11.10
2023-02-18T22:01:59.827Z,11.00
2023-02-18T22:04:29.262Z,11.10
2023-02-18T22:06:57.314Z,11.00
2023-02-18T22:09:27.655Z,10.90
2023-02-18T22:11:55.731Z,11.00
2023-02-18T22:14:24.113Z,11.10
2023-02-18T22:16:52.149Z,11.00
2023-02-18T22:19:21.883Z,11.00
2023-02-18T22:21:49.924Z,11.10
2023-02-18T22:24:20.318Z,11.00
2023-02-18T22:26:50.368Z,10.90
2023-02-18T22:29:21.109Z,10.90
2023-02-18T22:31:50.157Z,11.00
2023-02-18T22:34:18.479Z,11.10
2023-02-18T22:36:46.694Z,11.00
2023-02-18T22:39:16.238Z,11.00
2023-02-18T22:41:44.885Z,10.90
2023-02-18T22:44:16.340Z,11.00
2023-02-18T22:46:45.148Z,11.10
2023-02-18T22:49:14.026Z,11.10
2023-02-18T22:51:46.383Z,11.00
2023-02-18T22:54:16.863Z,11.00
2023-02-18T22:56:46.291Z,10.90
2023-02-18T22:59:19.218Z,11.00
2023-02-18T23:01:49.753Z,11.10
2023-02-18T23:04:20.336Z,10.90
2023-02-18T23:06:49.688Z,11.00
2023-02-18T23:09:21.416Z,10.80
2023-02-18T23:11:52.573Z,10.90
2023-02-18T23:14:22.832Z,10.90
2023-02-18T23:17:12.399Z,10.90
2023-02-18T23:19:42.369Z,10.80
2023-02-18T23:22:13.534Z,10.90
2023-02-18T23:24:44.626Z,11.00
2023-02-18T23:27:16.217Z,10.90
2023-02-18T23:29:45.598Z,11.00
2023-02-18T23:32:14.055Z,11.00
2023-02-18T23:34:42.142Z,11.10
2023-02-18T23:37:10.837Z,11.10
2023-02-18T23:39:39.777Z,10.80
2023-02-18T23:42:07.969Z,10.90
2023-02-18T23:44:36.014Z,10.90
2023-02-18T23:47:05.476Z,10.70
2023-02-18T23:49:33.434Z,10.70
2023-02-18T23:52:01.514Z,10.70
2023-02-18T23:54:29.569Z,10.80
2023-02-18T23:56:58.263Z,10.80
2023-02-18T23:59:26.316Z,10.80
